sensor_id;sensor_type;location;lat;lon;timestamp;pressure;altitude;pressure_sealevel;temperature;humidity
39295;BME280;52361;52.100;5.248;2023-03-04T00:00:09;102605.0;;;8.3;90.18
39295;BME280;52361;52.100;5.248;2023-03-04T00:01:46;102605.0;;;8.34;89.47
39295;BME280;52361;52.100;5.248;2023-03-04T00:03:23;102605.0;;;8.39;88.98
39295;BME280;52361;52.100;5.248;2023-03-04T00:06:35;102607.0;;;8.4;88.77
39295;BME280;52361;52.100;5.248;2023-03-04T00:08:11;102613.00000000001;;;8.41;89.1
39295;BME280;52361;52.100;5.248;2023-03-04T00:09:47;102614.00000000001;;;8.32;89.42
39295;BME280;52361;52.100;5.248;2023-03-04T00:11:23;102606.0;;;8.34;90.38
39295;BME280;52361;52.100;5.248;2023-03-04T00:14:35;102608.99999999999;;;8.16;90.46
39295;BME280;52361;52.100;5.248;2023-03-04T00:16:12;102606.0;;;8.3;89.62
39295;BME280;52361;52.100;5.248;2023-03-04T00:17:48;102604.0;;;8.39;89.08
39295;BME280;52361;52.100;5.248;2023-03-04T00:21:00;102603.0;;;8.49;88.95
39295;BME280;52361;52.100;5.248;2023-03-04T00:22:36;102601.0;;;8.35;89.47
39295;BME280;52361;52.100;5.248;2023-03-04T00:24:12;102602.0;;;8.44;89.16
39295;BME280;52361;52.100;5.248;2023-03-04T00:27:25;102603.0;;;8.49;88.7
39295;BME280;52361;52.100;5.248;2023-03-04T00:29:00;102608.0;;;8.27;90.12
39295;BME280;52361;52.100;5.248;2023-03-04T00:30:37;102607.0;;;8.39;89.22
39295;BME280;52361;52.100;5.248;2023-03-04T00:32:13;102611.99999999999;;;8.43;89.18
39295;BME280;52361;52.100;5.248;2023-03-04T00:35:25;102615.00000000001;;;8.33;90.37
39295;BME280;52361;52.100;5.248;2023-03-04T00:37:01;102611.99999999999;;;8.31;90.98
39295;BME280;52361;52.100;5.248;2023-03-04T00:38:38;102613.00000000001;;;8.42;90.3
39295;BME280;52361;52.100;5.248;2023-03-04T00:41:50;102608.0;;;8.38;91.04
39295;BME280;52361;52.100;5.248;2023-03-04T00:43:26;102607.0;;;8.38;90.64
39295;BME280;52361;52.100;5.248;2023-03-04T00:45:02;102611.99999999999;;;8.27;90.66
39295;BME280;52361;52.100;5.248;2023-03-04T00:48:15;102606.0;;;8.45;89.92
39295;BME280;52361;52.100;5.248;2023-03-04T00:49:51;102608.0;;;8.33;90.04
39295;BME280;52361;52.100;5.248;2023-03-04T00:51:27;102606.0;;;8.2;91.15
39295;BME280;52361;52.100;5.248;2023-03-04T00:54:41;102609.99999999999;;;8.11;91.51
39295;BME280;52361;52.100;5.248;2023-03-04T00:56:17;102614.00000000001;;;8.31;90.66
39295;BME280;52361;52.100;5.248;2023-03-04T00:57:53;102615.00000000001;;;8.32;90.86
39295;BME280;52361;52.100;5.248;2023-03-04T00:59:29;102615.00000000001;;;8.31;91.37
39295;BME280;52361;52.100;5.248;2023-03-04T01:02:42;102615.00000000001;;;8.25;92.09
39295;BME280;52361;52.100;5.248;2023-03-04T01:04:19;102609.99999999999;;;8.24;91.71
39295;BME280;52361;52.100;5.248;2023-03-04T01:05:55;102611.99999999999;;;8.32;91.55
39295;BME280;52361;52.100;5.248;2023-03-04T01:09:07;102613.00000000001;;;8.31;91.96
39295;BME280;52361;52.100;5.248;2023-03-04T01:10:43;102614.00000000001;;;8.4;90.61
39295;BME280;52361;52.100;5.248;2023-03-04T01:12:19;102608.99999999999;;;8.39;89.88
39295;BME280;52361;52.100;5.248;2023-03-04T01:15:32;102615.00000000001;;;8.39;89.68
39295;BME280;52361;52.100;5.248;2023-03-04T01:17:08;102613.00000000001;;;8.25;89.64
39295;BME280;52361;52.100;5.248;2023-03-04T01:18:44;102606.0;;;8.33;89.94
39295;BME280;52361;52.100;5.248;2023-03-04T01:20:20;102609.99999999999;;;8.31;90.09
39295;BME280;52361;52.100;5.248;2023-03-04T01:23:32;102608.0;;;8.39;90.35
39295;BME280;52361;52.100;5.248;2023-03-04T01:25:09;102608.0;;;8.55;89.42
39295;BME280;52361;52.100;5.248;2023-03-04T01:26:46;102606.0;;;8.41;90.27
39295;BME280;52361;52.100;5.248;2023-03-04T01:29:59;102604.0;;;8.23;90.77
39295;BME280;52361;52.100;5.248;2023-03-04T01:31:35;102602.0;;;8.25;90.26
39295;BME280;52361;52.100;5.248;2023-03-04T01:33:11;102594.0;;;8.36;89.86
39295;BME280;52361;52.100;5.248;2023-03-04T01:36:24;102593.0;;;8.43;88.31
39295;BME280;52361;52.100;5.248;2023-03-04T01:38:00;102593.0;;;8.48;87.13
39295;BME280;52361;52.100;5.248;2023-03-04T01:39:36;102589.00000000001;;;8.1;88.73
39295;BME280;52361;52.100;5.248;2023-03-04T01:44:28;102583.0;;;8.35;87.85
39295;BME280;52361;52.100;5.248;2023-03-04T01:46:05;102581.0;;;8.31;87.9
39295;BME280;52361;52.100;5.248;2023-03-04T01:47:43;102577.0;;;8.4;87.59
39295;BME280;52361;52.100;5.248;2023-03-04T01:50:58;102580.0;;;8.36;87.82
39295;BME280;52361;52.100;5.248;2023-03-04T01:52:35;102571.0;;;8.09;88.78
39295;BME280;52361;52.100;5.248;2023-03-04T01:54:19;102576.0;;;8.27;87.54
39295;BME280;52361;52.100;5.248;2023-03-04T01:56:00;102571.0;;;8.22;87.57
39295;BME280;52361;52.100;5.248;2023-03-04T01:59:17;102568.0;;;8.32;86.81
39295;BME280;52361;52.100;5.248;2023-03-04T02:00:54;102570.0;;;8.36;86.56
39295;BME280;52361;52.100;5.248;2023-03-04T02:02:31;102561.99999999999;;;8.43;86.12
39295;BME280;52361;52.100;5.248;2023-03-04T02:05:48;102559.99999999999;;;8.23;86.86
39295;BME280;52361;52.100;5.248;2023-03-04T02:07:24;102559.99999999999;;;8.3;86.9
39295;BME280;52361;52.100;5.248;2023-03-04T02:09:00;102557.0;;;8.23;86.69
39295;BME280;52361;52.100;5.248;2023-03-04T02:10:37;102558.99999999999;;;8.19;87.77
39295;BME280;52361;52.100;5.248;2023-03-04T02:13:50;102555.0;;;8.36;87.39
39295;BME280;52361;52.100;5.248;2023-03-04T02:17:08;102551.0;;;8.24;88.16
39295;BME280;52361;52.100;5.248;2023-03-04T02:20:34;102547.0;;;8.31;87.69
39295;BME280;52361;52.100;5.248;2023-03-04T02:22:13;102543.0;;;8.36;87.03
39295;BME280;52361;52.100;5.248;2023-03-04T02:23:55;102536.99999999999;;;8.31;86.62
39295;BME280;52361;52.100;5.248;2023-03-04T02:25:41;102540.00000000001;;;8.25;91.19
39295;BME280;52361;52.100;5.248;2023-03-04T02:27:20;102533.99999999999;;;8.41;87.07
39295;BME280;52361;52.100;5.248;2023-03-04T02:30:34;102534.99999999999;;;8.31;87.05
39295;BME280;52361;52.100;5.248;2023-03-04T02:32:12;102533.0;;;8.35;86.36
39295;BME280;52361;52.100;5.248;2023-03-04T02:33:49;102533.0;;;8.39;86.3
39295;BME280;52361;52.100;5.248;2023-03-04T02:37:02;102534.99999999999;;;8.33;86.24
39295;BME280;52361;52.100;5.248;2023-03-04T02:38:39;102527.0;;;8.1;87.71
39295;BME280;52361;52.100;5.248;2023-03-04T02:40:20;102532.0;;;8.28;87.01
39295;BME280;52361;52.100;5.248;2023-03-04T02:42:00;102530.0;;;8.26;87.3
39295;BME280;52361;52.100;5.248;2023-03-04T02:45:34;102521.0;;;8.23;87.03
39295;BME280;52361;52.100;5.248;2023-03-04T02:47:12;102523.0;;;8.32;87.56
39295;BME280;52361;52.100;5.248;2023-03-04T02:48:49;102519.0;;;8.25;87.43
39295;BME280;52361;52.100;5.248;2023-03-04T02:50:27;102518.0;;;8.32;86.93
39295;BME280;52361;52.100;5.248;2023-03-04T02:53:47;102513.00000000001;;;8.39;87.31
39295;BME280;52361;52.100;5.248;2023-03-04T02:55:23;102511.99999999999;;;8.18;87.9
39295;BME280;52361;52.100;5.248;2023-03-04T02:57:02;102513.00000000001;;;8.25;87.28
39295;BME280;52361;52.100;5.248;2023-03-04T03:00:15;102508.0;;;8.31;87.47
39295;BME280;52361;52.100;5.248;2023-03-04T03:01:51;102513.00000000001;;;8.42;87.79
39295;BME280;52361;52.100;5.248;2023-03-04T03:03:28;102509.99999999999;;;8.39;86.85
39295;BME280;52361;52.100;5.248;2023-03-04T03:05:05;102513.00000000001;;;8.45;86.53
39295;BME280;52361;52.100;5.248;2023-03-04T03:08:19;102517.0;;;8.41;86.53
39295;BME280;52361;52.100;5.248;2023-03-04T03:09:55;102513.00000000001;;;8.42;86.51
39295;BME280;52361;52.100;5.248;2023-03-04T03:11:31;102515.00000000001;;;8.23;87.75
39295;BME280;52361;52.100;5.248;2023-03-04T03:14:43;102508.0;;;8.36;87.39
39295;BME280;52361;52.100;5.248;2023-03-04T03:16:19;102507.0;;;7.88;88.42
39295;BME280;52361;52.100;5.248;2023-03-04T03:17:55;102499.0;;;8.18;87.89
39295;BME280;52361;52.100;5.248;2023-03-04T03:21:09;102503.0;;;8.26;87.61
39295;BME280;52361;52.100;5.248;2023-03-04T03:22:45;102500.0;;;8.24;88.01
39295;BME280;52361;52.100;5.248;2023-03-04T03:24:22;102500.0;;;8.1;88.53
39295;BME280;52361;52.100;5.248;2023-03-04T03:25:58;102503.0;;;8.15;88.53
39295;BME280;52361;52.100;5.248;2023-03-04T03:29:10;102499.0;;;8.25;88.3
39295;BME280;52361;52.100;5.248;2023-03-04T03:30:46;102497.0;;;8.18;87.81
39295;BME280;52361;52.100;5.248;2023-03-04T03:32:23;102493.0;;;8.11;88.03
39295;BME280;52361;52.100;5.248;2023-03-04T03:35:35;102496.0;;;8.34;87.05
39295;BME280;52361;52.100;5.248;2023-03-04T03:37:11;102493.0;;;8.32;87.24
39295;BME280;52361;52.100;5.248;2023-03-04T03:38:48;102489.00000000001;;;8.13;88.39
39295;BME280;52361;52.100;5.248;2023-03-04T03:42:00;102495.0;;;8.24;90.31
39295;BME280;52361;52.100;5.248;2023-03-04T03:43:37;102491.00000000001;;;8.28;88.12
39295;BME280;52361;52.100;5.248;2023-03-04T03:45:13;102490.00000000001;;;8.05;89.51
39295;BME280;52361;52.100;5.248;2023-03-04T03:46:49;102491.00000000001;;;8.19;89.21
39295;BME280;52361;52.100;5.248;2023-03-04T03:50:02;102490.00000000001;;;8.07;90.05
39295;BME280;52361;52.100;5.248;2023-03-04T03:51:38;102492.0;;;8.09;89.66
39295;BME280;52361;52.100;5.248;2023-03-04T03:53:14;102489.00000000001;;;7.97;90.1
39295;BME280;52361;52.100;5.248;2023-03-04T03:56:27;102491.00000000001;;;8.06;89.53
39295;BME280;52361;52.100;5.248;2023-03-04T03:58:03;102494.0;;;8.1;90.92
39295;BME280;52361;52.100;5.248;2023-03-04T03:59:39;102490.00000000001;;;8.19;90.19
39295;BME280;52361;52.100;5.248;2023-03-04T04:02:52;102496.0;;;8.19;90.62
39295;BME280;52361;52.100;5.248;2023-03-04T04:04:30;102497.0;;;8.16;90.88
39295;BME280;52361;52.100;5.248;2023-03-04T04:06:06;102498.0;;;7.99;92.06
39295;BME280;52361;52.100;5.248;2023-03-04T04:07:42;102497.0;;;8.01;91.89
39295;BME280;52361;52.100;5.248;2023-03-04T04:10:54;102500.0;;;7.92;91.39
39295;BME280;52361;52.100;5.248;2023-03-04T04:12:31;102498.0;;;8.02;92.52
39295;BME280;52361;52.100;5.248;2023-03-04T04:14:08;102501.0;;;8.17;90.82
39295;BME280;52361;52.100;5.248;2023-03-04T04:17:22;102501.0;;;8.23;90.55
39295;BME280;52361;52.100;5.248;2023-03-04T04:18:58;102501.0;;;8.05;91.62
39295;BME280;52361;52.100;5.248;2023-03-04T04:20:34;102501.0;;;8.06;91.33
39295;BME280;52361;52.100;5.248;2023-03-04T04:23:50;102505.0;;;8.31;90.1
39295;BME280;52361;52.100;5.248;2023-03-04T04:25:27;102506.0;;;8.31;90.15
39295;BME280;52361;52.100;5.248;2023-03-04T04:27:03;102507.0;;;8.28;90.28
39295;BME280;52361;52.100;5.248;2023-03-04T04:28:39;102500.0;;;8.14;91.36
39295;BME280;52361;52.100;5.248;2023-03-04T04:31:52;102506.0;;;8.28;90.66
39295;BME280;52361;52.100;5.248;2023-03-04T04:33:28;102504.0;;;8.27;90.58
39295;BME280;52361;52.100;5.248;2023-03-04T04:35:05;102507.0;;;8.15;91.85
39295;BME280;52361;52.100;5.248;2023-03-04T04:38:19;102502.0;;;8.11;91.92
39295;BME280;52361;52.100;5.248;2023-03-04T04:39:55;102505.0;;;8.14;92.19
39295;BME280;52361;52.100;5.248;2023-03-04T04:41:35;102505.0;;;7.96;93.3
39295;BME280;52361;52.100;5.248;2023-03-04T04:44:48;102505.0;;;8.13;92.65
39295;BME280;52361;52.100;5.248;2023-03-04T04:46:25;102502.0;;;8.06;93.23
39295;BME280;52361;52.100;5.248;2023-03-04T04:48:02;102507.0;;;8.03;95.16
39295;BME280;52361;52.100;5.248;2023-03-04T04:49:38;102507.0;;;7.94;96.68
39295;BME280;52361;52.100;5.248;2023-03-04T04:52:50;102505.0;;;8.02;96.75
39295;BME280;52361;52.100;5.248;2023-03-04T04:54:27;102513.00000000001;;;7.94;97.31
39295;BME280;52361;52.100;5.248;2023-03-04T04:56:12;102508.0;;;8.02;97.58
39295;BME280;52361;52.100;5.248;2023-03-04T04:59:25;102503.0;;;8.06;98.12
39295;BME280;52361;52.100;5.248;2023-03-04T05:01:02;102504.0;;;8.06;98.39
39295;BME280;52361;52.100;5.248;2023-03-04T05:02:39;102504.0;;;7.9;99.36
39295;BME280;52361;52.100;5.248;2023-03-04T05:04:15;102508.0;;;7.91;99.43
39295;BME280;52361;52.100;5.248;2023-03-04T05:07:27;102505.0;;;7.9;99.15
39295;BME280;52361;52.100;5.248;2023-03-04T05:09:04;102503.0;;;7.81;100.0
39295;BME280;52361;52.100;5.248;2023-03-04T05:10:39;102505.0;;;7.73;100.0
39295;BME280;52361;52.100;5.248;2023-03-04T05:13:52;102502.0;;;7.74;100.0
39295;BME280;52361;52.100;5.248;2023-03-04T05:15:29;102500.0;;;7.72;100.0
39295;BME280;52361;52.100;5.248;2023-03-04T05:17:05;102504.0;;;7.56;100.0
39295;BME280;52361;52.100;5.248;2023-03-04T05:20:17;102505.0;;;7.58;100.0
39295;BME280;52361;52.100;5.248;2023-03-04T05:21:53;102503.0;;;7.69;100.0
39295;BME280;52361;52.100;5.248;2023-03-04T05:23:32;102504.0;;;7.72;100.0
39295;BME280;52361;52.100;5.248;2023-03-04T05:25:09;102504.0;;;7.58;100.0
39295;BME280;52361;52.100;5.248;2023-03-04T05:28:22;102506.0;;;7.51;100.0
39295;BME280;52361;52.100;5.248;2023-03-04T05:29:58;102513.00000000001;;;7.54;100.0
39295;BME280;52361;52.100;5.248;2023-03-04T05:31:35;102509.99999999999;;;7.49;100.0
39295;BME280;52361;52.100;5.248;2023-03-04T05:34:50;102513.00000000001;;;7.52;100.0
39295;BME280;52361;52.100;5.248;2023-03-04T05:36:26;102507.0;;;7.54;100.0
39295;BME280;52361;52.100;5.248;2023-03-04T05:38:02;102508.0;;;7.55;100.0
39295;BME280;52361;52.100;5.248;2023-03-04T05:41:15;102517.0;;;7.55;100.0
39295;BME280;52361;52.100;5.248;2023-03-04T05:42:51;102515.00000000001;;;7.72;100.0
39295;BME280;52361;52.100;5.248;2023-03-04T05:44:28;102515.00000000001;;;7.55;100.0
39295;BME280;52361;52.100;5.248;2023-03-04T05:46:04;102514.00000000001;;;7.71;100.0
39295;BME280;52361;52.100;5.248;2023-03-04T05:49:16;102514.00000000001;;;7.89;100.0
39295;BME280;52361;52.100;5.248;2023-03-04T05:50:52;102516.00000000001;;;7.77;100.0
39295;BME280;52361;52.100;5.248;2023-03-04T05:55:44;102508.0;;;7.73;100.0
39295;BME280;52361;52.100;5.248;2023-03-04T05:57:21;102506.0;;;7.73;100.0
39295;BME280;52361;52.100;5.248;2023-03-04T05:58:57;102507.0;;;7.66;100.0
39295;BME280;52361;52.100;5.248;2023-03-04T06:02:10;102506.0;;;7.61;100.0
39295;BME280;52361;52.100;5.248;2023-03-04T06:03:46;102508.99999999999;;;7.65;100.0
39295;BME280;52361;52.100;5.248;2023-03-04T06:05:23;102505.0;;;7.55;100.0
39295;BME280;52361;52.100;5.248;2023-03-04T06:06:59;102508.99999999999;;;7.6;100.0
39295;BME280;52361;52.100;5.248;2023-03-04T06:10:13;102506.0;;;7.66;100.0
39295;BME280;52361;52.100;5.248;2023-03-04T06:11:50;102511.99999999999;;;7.56;100.0
39295;BME280;52361;52.100;5.248;2023-03-04T06:13:26;102511.99999999999;;;7.43;100.0
39295;BME280;52361;52.100;5.248;2023-03-04T06:16:40;102502.0;;;7.56;100.0
39295;BME280;52361;52.100;5.248;2023-03-04T06:18:16;102505.0;;;7.59;100.0
39295;BME280;52361;52.100;5.248;2023-03-04T06:19:52;102508.0;;;7.46;100.0
39295;BME280;52361;52.100;5.248;2023-03-04T06:23:05;102504.0;;;7.51;100.0
39295;BME280;52361;52.100;5.248;2023-03-04T06:24:42;102503.0;;;7.62;100.0
39295;BME280;52361;52.100;5.248;2023-03-04T06:26:18;102506.0;;;7.54;100.0
39295;BME280;52361;52.100;5.248;2023-03-04T06:27:54;102502.0;;;7.48;100.0
39295;BME280;52361;52.100;5.248;2023-03-04T06:31:07;102505.0;;;7.55;100.0
39295;BME280;52361;52.100;5.248;2023-03-04T06:32:43;102508.0;;;7.46;100.0
39295;BME280;52361;52.100;5.248;2023-03-04T06:34:20;102508.99999999999;;;7.36;100.0
39295;BME280;52361;52.100;5.248;2023-03-04T06:37:32;102511.99999999999;;;7.37;100.0
39295;BME280;52361;52.100;5.248;2023-03-04T06:39:08;102514.00000000001;;;7.35;100.0
39295;BME280;52361;52.100;5.248;2023-03-04T06:40:45;102511.99999999999;;;7.42;100.0
39295;BME280;52361;52.100;5.248;2023-03-04T06:43:57;102517.0;;;7.34;100.0
39295;BME280;52361;52.100;5.248;2023-03-04T06:45:33;102511.99999999999;;;7.35;100.0
39295;BME280;52361;52.100;5.248;2023-03-04T06:47:09;102515.00000000001;;;7.4;100.0
39295;BME280;52361;52.100;5.248;2023-03-04T06:50:22;102518.0;;;7.49;100.0
39295;BME280;52361;52.100;5.248;2023-03-04T06:51:59;102515.00000000001;;;7.64;100.0
39295;BME280;52361;52.100;5.248;2023-03-04T06:53:35;102517.0;;;7.6;100.0
39295;BME280;52361;52.100;5.248;2023-03-04T06:55:12;102515.00000000001;;;7.48;100.0
39295;BME280;52361;52.100;5.248;2023-03-04T06:58:24;102513.00000000001;;;7.56;100.0
39295;BME280;52361;52.100;5.248;2023-03-04T07:00:00;102519.0;;;7.57;100.0
39295;BME280;52361;52.100;5.248;2023-03-04T07:01:37;102521.0;;;7.68;100.0
39295;BME280;52361;52.100;5.248;2023-03-04T07:04:49;102521.0;;;7.63;100.0
39295;BME280;52361;52.100;5.248;2023-03-04T07:06:27;102525.0;;;7.66;100.0
39295;BME280;52361;52.100;5.248;2023-03-04T07:08:04;102528.0;;;7.61;100.0
39295;BME280;52361;52.100;5.248;2023-03-04T07:11:16;102527.0;;;7.7;100.0
39295;BME280;52361;52.100;5.248;2023-03-04T07:12:55;102526.0;;;7.73;100.0
39295;BME280;52361;52.100;5.248;2023-03-04T07:14:31;102530.0;;;7.75;100.0
39295;BME280;52361;52.100;5.248;2023-03-04T07:16:09;102530.0;;;7.74;100.0
39295;BME280;52361;52.100;5.248;2023-03-04T07:19:23;102533.0;;;7.82;100.0
39295;BME280;52361;52.100;5.248;2023-03-04T07:21:00;102531.0;;;7.78;100.0
39295;BME280;52361;52.100;5.248;2023-03-04T07:22:36;102533.99999999999;;;7.83;100.0
39295;BME280;52361;52.100;5.248;2023-03-04T07:27:26;102528.0;;;7.8;100.0
39295;BME280;52361;52.100;5.248;2023-03-04T07:29:03;102527.0;;;7.86;100.0
39295;BME280;52361;52.100;5.248;2023-03-04T07:30:39;102524.0;;;7.91;100.0
39295;BME280;52361;52.100;5.248;2023-03-04T07:33:55;102533.99999999999;;;8.06;100.0
39295;BME280;52361;52.100;5.248;2023-03-04T07:35:32;102531.0;;;8.14;100.0
39295;BME280;52361;52.100;5.248;2023-03-04T07:37:08;102533.99999999999;;;8.15;100.0
39295;BME280;52361;52.100;5.248;2023-03-04T07:40:22;102530.0;;;8.06;100.0
39295;BME280;52361;52.100;5.248;2023-03-04T07:41:58;102533.0;;;8.24;100.0
39295;BME280;52361;52.100;5.248;2023-03-04T07:43:35;102532.0;;;8.3;100.0
39295;BME280;52361;52.100;5.248;2023-03-04T07:46:47;102531.0;;;8.19;100.0
39295;BME280;52361;52.100;5.248;2023-03-04T07:48:23;102533.99999999999;;;8.26;100.0
39295;BME280;52361;52.100;5.248;2023-03-04T07:49:59;102533.99999999999;;;8.06;100.0
39295;BME280;52361;52.100;5.248;2023-03-04T07:51:36;102536.99999999999;;;8.2;100.0
39295;BME280;52361;52.100;5.248;2023-03-04T07:54:49;102544.0;;;8.18;100.0
39295;BME280;52361;52.100;5.248;2023-03-04T07:56:27;102544.0;;;8.22;100.0
39295;BME280;52361;52.100;5.248;2023-03-04T07:58:04;102542.0;;;8.31;100.0
39295;BME280;52361;52.100;5.248;2023-03-04T08:01:19;102540.00000000001;;;8.33;100.0
39295;BME280;52361;52.100;5.248;2023-03-04T08:02:56;102542.0;;;8.52;100.0
39295;BME280;52361;52.100;5.248;2023-03-04T08:04:32;102544.0;;;8.45;100.0
39295;BME280;52361;52.100;5.248;2023-03-04T08:07:47;102543.0;;;8.52;100.0
39295;BME280;52361;52.100;5.248;2023-03-04T08:09:23;102545.0;;;8.52;100.0
39295;BME280;52361;52.100;5.248;2023-03-04T08:10:59;102550.0;;;8.69;100.0
39295;BME280;52361;52.100;5.248;2023-03-04T08:12:39;102552.0;;;8.81;100.0
39295;BME280;52361;52.100;5.248;2023-03-04T08:15:54;102556.0;;;8.78;100.0
39295;BME280;52361;52.100;5.248;2023-03-04T08:17:31;102561.99999999999;;;8.81;100.0
39295;BME280;52361;52.100;5.248;2023-03-04T08:19:07;102561.99999999999;;;8.81;100.0
39295;BME280;52361;52.100;5.248;2023-03-04T08:22:21;102564.00000000001;;;8.91;100.0
39295;BME280;52361;52.100;5.248;2023-03-04T08:23:58;102558.99999999999;;;8.86;100.0
39295;BME280;52361;52.100;5.248;2023-03-04T08:25:38;102559.99999999999;;;9.07;100.0
39295;BME280;52361;52.100;5.248;2023-03-04T08:27:14;102563.00000000001;;;9.08;100.0
39295;BME280;52361;52.100;5.248;2023-03-04T08:30:27;102558.99999999999;;;9.03;100.0
39295;BME280;52361;52.100;5.248;2023-03-04T08:32:04;102561.99999999999;;;9.14;100.0
39295;BME280;52361;52.100;5.248;2023-03-04T08:33:39;102554.0;;;9.38;100.0
39295;BME280;52361;52.100;5.248;2023-03-04T08:36:52;102554.0;;;9.4;100.0
39295;BME280;52361;52.100;5.248;2023-03-04T08:38:29;102558.99999999999;;;9.38;100.0
39295;BME280;52361;52.100;5.248;2023-03-04T08:40:06;102556.0;;;9.55;100.0
39295;BME280;52361;52.100;5.248;2023-03-04T08:43:23;102558.0;;;9.65;99.74
39295;BME280;52361;52.100;5.248;2023-03-04T08:44:59;102558.99999999999;;;9.66;99.82
39295;BME280;52361;52.100;5.248;2023-03-04T08:46:36;102559.99999999999;;;9.64;100.0
39295;BME280;52361;52.100;5.248;2023-03-04T08:48:13;102558.0;;;9.53;100.0
39295;BME280;52361;52.100;5.248;2023-03-04T08:51:28;102555.0;;;9.63;99.98
39295;BME280;52361;52.100;5.248;2023-03-04T08:53:04;102554.0;;;9.63;100.0
39295;BME280;52361;52.100;5.248;2023-03-04T08:54:40;102549.0;;;9.63;100.0
39295;BME280;52361;52.100;5.248;2023-03-04T08:57:54;102549.0;;;9.65;100.0
39295;BME280;52361;52.100;5.248;2023-03-04T08:59:30;102549.0;;;9.73;99.6
39295;BME280;52361;52.100;5.248;2023-03-04T09:01:07;102550.0;;;9.68;100.0
39295;BME280;52361;52.100;5.248;2023-03-04T09:02:44;102553.0;;;9.69;100.0
39295;BME280;52361;52.100;5.248;2023-03-04T09:05:56;102553.0;;;9.72;100.0
39295;BME280;52361;52.100;5.248;2023-03-04T09:07:32;102553.0;;;9.82;100.0
39295;BME280;52361;52.100;5.248;2023-03-04T09:09:09;102554.0;;;9.57;100.0
39295;BME280;52361;52.100;5.248;2023-03-04T09:12:22;102547.0;;;9.58;100.0
39295;BME280;52361;52.100;5.248;2023-03-04T09:13:58;102553.0;;;9.57;100.0
39295;BME280;52361;52.100;5.248;2023-03-04T09:15:34;102553.0;;;9.23;100.0
39295;BME280;52361;52.100;5.248;2023-03-04T09:18:47;102550.0;;;9.31;100.0
39295;BME280;52361;52.100;5.248;2023-03-04T09:20:23;102551.0;;;9.48;100.0
39295;BME280;52361;52.100;5.248;2023-03-04T09:22:00;102549.0;;;9.31;100.0
39295;BME280;52361;52.100;5.248;2023-03-04T09:23:36;102543.0;;;9.31;100.0
39295;BME280;52361;52.100;5.248;2023-03-04T09:26:49;102550.0;;;9.23;100.0
39295;BME280;52361;52.100;5.248;2023-03-04T09:28:26;102548.0;;;9.36;100.0
39295;BME280;52361;52.100;5.248;2023-03-04T09:30:03;102552.0;;;9.4;100.0
39295;BME280;52361;52.100;5.248;2023-03-04T09:33:16;102552.0;;;9.34;100.0
39295;BME280;52361;52.100;5.248;2023-03-04T09:34:53;102549.0;;;9.56;100.0
39295;BME280;52361;52.100;5.248;2023-03-04T09:36:29;102549.0;;;9.32;100.0
39295;BME280;52361;52.100;5.248;2023-03-04T09:39:42;102551.0;;;9.59;100.0
39295;BME280;52361;52.100;5.248;2023-03-04T09:41:21;102547.0;;;9.53;100.0
39295;BME280;52361;52.100;5.248;2023-03-04T09:43:01;102543.0;;;9.58;100.0
39295;BME280;52361;52.100;5.248;2023-03-04T09:44:40;102542.0;;;9.59;100.0
39295;BME280;52361;52.100;5.248;2023-03-04T09:49:44;102542.0;;;9.91;100.0
39295;BME280;52361;52.100;5.248;2023-03-04T09:51:42;102542.0;;;9.86;100.0
39295;BME280;52361;52.100;5.248;2023-03-04T09:53:22;102534.99999999999;;;10.02;100.0
39295;BME280;52361;52.100;5.248;2023-03-04T09:55:13;102532.0;;;10.18;100.0
39295;BME280;52361;52.100;5.248;2023-03-04T09:58:47;102533.0;;;10.13;100.0
39295;BME280;52361;52.100;5.248;2023-03-04T10:00:33;102531.0;;;10.19;100.0
39295;BME280;52361;52.100;5.248;2023-03-04T10:02:17;102533.99999999999;;;10.19;100.0
39295;BME280;52361;52.100;5.248;2023-03-04T10:03:58;102529.0;;;10.16;100.0
39295;BME280;52361;52.100;5.248;2023-03-04T10:05:41;102532.0;;;10.23;100.0
39295;BME280;52361;52.100;5.248;2023-03-04T10:09:14;102530.0;;;10.32;100.0
39295;BME280;52361;52.100;5.248;2023-03-04T10:10:53;102531.0;;;10.22;100.0
39295;BME280;52361;52.100;5.248;2023-03-04T10:12:33;102534.99999999999;;;10.24;100.0
39295;BME280;52361;52.100;5.248;2023-03-04T10:14:32;102533.0;;;10.05;100.0
39295;BME280;52361;52.100;5.248;2023-03-04T10:16:13;102528.0;;;10.23;100.0
39295;BME280;52361;52.100;5.248;2023-03-04T10:19:48;102526.0;;;10.32;100.0
39295;BME280;52361;52.100;5.248;2023-03-04T10:23:14;102525.0;;;10.47;100.0
39295;BME280;52361;52.100;5.248;2023-03-04T10:24:55;102519.0;;;10.78;100.0
39295;BME280;52361;52.100;5.248;2023-03-04T10:26:32;102511.99999999999;;;11.12;100.0
39295;BME280;52361;52.100;5.248;2023-03-04T10:29:51;102504.0;;;11.3;100.0
39295;BME280;52361;52.100;5.248;2023-03-04T10:31:31;102497.0;;;11.74;100.0
39295;BME280;52361;52.100;5.248;2023-03-04T10:33:12;102503.0;;;11.8;97.52
39295;BME280;52361;52.100;5.248;2023-03-04T10:34:48;102508.99999999999;;;11.77;98.53
39295;BME280;52361;52.100;5.248;2023-03-04T10:40:00;102506.0;;;11.86;95.17
39295;BME280;52361;52.100;5.248;2023-03-04T10:41:39;102511.99999999999;;;11.77;95.16
39295;BME280;52361;52.100;5.248;2023-03-04T10:43:19;102508.99999999999;;;11.8;93.35
39295;BME280;52361;52.100;5.248;2023-03-04T10:46:37;102518.0;;;11.74;95.31
39295;BME280;52361;52.100;5.248;2023-03-04T10:48:18;102517.0;;;11.37;96.31
39295;BME280;52361;52.100;5.248;2023-03-04T10:49:58;102523.0;;;11.2;98.45
39295;BME280;52361;52.100;5.248;2023-03-04T10:55:14;102525.0;;;11.05;100.0
39295;BME280;52361;52.100;5.248;2023-03-04T10:56:55;102525.0;;;10.98;100.0
39295;BME280;52361;52.100;5.248;2023-03-04T10:58:32;102527.0;;;10.93;100.0
39295;BME280;52361;52.100;5.248;2023-03-04T11:00:23;102526.0;;;10.78;100.0
39295;BME280;52361;52.100;5.248;2023-03-04T11:02:17;102523.0;;;10.71;100.0